sensor_id;sensor_type;location;lat;lon;timestamp;pressure;altitude;pressure_sealevel;temperature;humidity
1207;BME280;593;53.184;8.216;2023-01-26T00:01:38;102028.22;;;2.74;100.00
1207;BME280;593;53.184;8.216;2023-01-26T00:04:03;102044.38;;;2.81;100.00
1207;BME280;593;53.184;8.216;2023-01-26T00:06:29;102032.16;;;2.78;100.00
1207;BME280;593;53.184;8.216;2023-01-26T00:08:55;102034.84;;;2.78;100.00
1207;BME280;593;53.184;8.216;2023-01-26T00:11:25;102030.75;;;2.82;100.00
1207;BME280;593;53.184;8.216;2023-01-26T00:13:51;102011.91;;;2.76;100.00
1207;BME280;593;53.184;8.216;2023-01-26T00:16:17;102019.56;;;2.79;100.00
1207;BME280;593;53.184;8.216;2023-01-26T00:18:43;102013.19;;;2.80;100.00
1207;BME280;593;53.184;8.216;2023-01-26T00:21:15;102017.13;;;2.84;100.00
1207;BME280;593;53.184;8.216;2023-01-26T00:23:41;102001.38;;;2.81;100.00
1207;BME280;593;53.184;8.216;2023-01-26T00:26:09;102005.13;;;2.80;100.00
1207;BME280;593;53.184;8.216;2023-01-26T00:28:35;102005.75;;;2.82;100.00
1207;BME280;593;53.184;8.216;2023-01-26T00:31:05;102001.84;;;2.84;100.00
1207;BME280;593;53.184;8.216;2023-01-26T00:33:31;102002.44;;;2.80;100.00
1207;BME280;593;53.184;8.216;2023-01-26T00:35:56;102006.59;;;2.82;100.00
1207;BME280;593;53.184;8.216;2023-01-26T00:38:22;101993.53;;;2.79;100.00
1207;BME280;593;53.184;8.216;2023-01-26T00:40:48;101997.06;;;2.80;100.00
1207;BME280;593;53.184;8.216;2023-01-26T00:43:13;101996.66;;;2.83;100.00
1207;BME280;593;53.184;8.216;2023-01-26T00:45:39;101985.94;;;2.83;100.00
1207;BME280;593;53.184;8.216;2023-01-26T00:48:04;101997.47;;;2.83;100.00
1207;BME280;593;53.184;8.216;2023-01-26T00:50:30;101988.63;;;2.83;100.00
1207;BME280;593;53.184;8.216;2023-01-26T00:52:55;101985.28;;;2.81;100.00
1207;BME280;593;53.184;8.216;2023-01-26T00:55:21;101989.03;;;2.86;100.00
1207;BME280;593;53.184;8.216;2023-01-26T00:57:48;101991.72;;;2.86;100.00
1207;BME280;593;53.184;8.216;2023-01-26T01:00:14;101980.34;;;2.84;100.00
1207;BME280;593;53.184;8.216;2023-01-26T01:02:41;101981.19;;;2.85;100.00
1207;BME280;593;53.184;8.216;2023-01-26T01:05:07;101982.00;;;2.85;100.00
1207;BME280;593;53.184;8.216;2023-01-26T01:07:32;101978.50;;;2.85;100.00
1207;BME280;593;53.184;8.216;2023-01-26T01:09:58;101983.66;;;2.86;100.00
1207;BME280;593;53.184;8.216;2023-01-26T01:12:25;101976.81;;;2.84;100.00
1207;BME280;593;53.184;8.216;2023-01-26T01:14:50;101978.28;;;2.86;100.00
1207;BME280;593;53.184;8.216;2023-01-26T01:17:15;101978.50;;;2.85;100.00
1207;BME280;593;53.184;8.216;2023-01-26T01:19:41;101984.28;;;2.88;100.00
1207;BME280;593;53.184;8.216;2023-01-26T01:22:06;101986.16;;;2.88;100.00
1207;BME280;593;53.184;8.216;2023-01-26T01:24:32;101983.66;;;2.86;100.00
1207;BME280;593;53.184;8.216;2023-01-26T01:26:59;101992.16;;;2.90;100.00
1207;BME280;593;53.184;8.216;2023-01-26T01:29:24;101988.63;;;2.89;100.00
1207;BME280;593;53.184;8.216;2023-01-26T01:31:49;101980.78;;;2.88;100.00
1207;BME280;593;53.184;8.216;2023-01-26T01:34:15;101977.06;;;2.89;100.00
1207;BME280;593;53.184;8.216;2023-01-26T01:36:40;101984.72;;;2.92;100.00
1207;BME280;593;53.184;8.216;2023-01-26T01:39:05;101979.56;;;2.90;100.00
1207;BME280;593;53.184;8.216;2023-01-26T01:41:31;101981.19;;;2.91;100.00
1207;BME280;593;53.184;8.216;2023-01-26T01:44:16;101978.50;;;2.91;100.00
1207;BME280;593;53.184;8.216;2023-01-26T01:47:04;101975.81;;;2.91;100.00
1207;BME280;593;53.184;8.216;2023-01-26T01:54:37;101980.34;;;2.91;100.00
1207;BME280;593;53.184;8.216;2023-01-26T01:57:06;101980.34;;;2.91;100.00
1207;BME280;593;53.184;8.216;2023-01-26T01:59:43;101975.66;;;2.93;100.00
1207;BME280;593;53.184;8.216;2023-01-26T02:02:10;101976.66;;;2.92;100.00
1207;BME280;593;53.184;8.216;2023-01-26T02:04:36;101970.28;;;2.93;100.00
1207;BME280;593;53.184;8.216;2023-01-26T02:07:02;101975.66;;;2.93;100.00
1207;BME280;593;53.184;8.216;2023-01-26T02:09:32;101967.97;;;2.90;100.00
1207;BME280;593;53.184;8.216;2023-01-26T02:12:19;101972.13;;;2.92;100.00
1207;BME280;593;53.184;8.216;2023-01-26T02:14:48;101975.66;;;2.93;100.00
1207;BME280;593;53.184;8.216;2023-01-26T02:17:14;101967.59;;;2.93;100.00
1207;BME280;593;53.184;8.216;2023-01-26T02:20:17;101966.75;;;2.92;100.00
1207;BME280;593;53.184;8.216;2023-01-26T02:22:51;101967.16;;;2.96;100.00
1207;BME280;593;53.184;8.216;2023-01-26T02:28:06;101963.66;;;2.95;100.00
1207;BME280;593;53.184;8.216;2023-01-26T02:30:32;101963.47;;;2.97;100.00
1207;BME280;593;53.184;8.216;2023-01-26T02:32:57;101951.25;;;2.94;100.00
1207;BME280;593;53.184;8.216;2023-01-26T02:35:22;101951.88;;;2.96;100.00
1207;BME280;593;53.184;8.216;2023-01-26T02:37:48;101952.72;;;2.97;100.00
1207;BME280;593;53.184;8.216;2023-01-26T02:40:35;101956.84;;;2.99;100.00
1207;BME280;593;53.184;8.216;2023-01-26T02:43:02;101947.78;;;3.00;100.00
1207;BME280;593;53.184;8.216;2023-01-26T02:45:29;101947.94;;;2.99;100.00
1207;BME280;593;53.184;8.216;2023-01-26T02:47:56;101951.47;;;2.99;100.00
1207;BME280;593;53.184;8.216;2023-01-26T02:50:22;101942.59;;;2.99;100.00
1207;BME280;593;53.184;8.216;2023-01-26T02:52:47;101940.72;;;2.99;100.00
1207;BME280;593;53.184;8.216;2023-01-26T02:55:13;101930.19;;;2.98;100.00
1207;BME280;593;53.184;8.216;2023-01-26T02:57:51;101944.88;;;3.02;100.00
1207;BME280;593;53.184;8.216;2023-01-26T03:00:21;101948.41;;;3.02;100.00
1207;BME280;593;53.184;8.216;2023-01-26T03:02:47;101937.03;;;3.00;100.00
1207;BME280;593;53.184;8.216;2023-01-26T03:05:14;101938.25;;;3.04;100.00
1207;BME280;593;53.184;8.216;2023-01-26T03:07:39;101931.22;;;3.03;100.00
1207;BME280;593;53.184;8.216;2023-01-26T03:10:05;101936.41;;;3.05;100.00
1207;BME280;593;53.184;8.216;2023-01-26T03:12:31;101928.53;;;3.03;100.00
1207;BME280;593;53.184;8.216;2023-01-26T03:14:56;101937.88;;;3.07;100.00
1207;BME280;593;53.184;8.216;2023-01-26T03:17:40;101932.69;;;3.06;100.00
1207;BME280;593;53.184;8.216;2023-01-26T03:20:06;101931.66;;;3.07;100.00
1207;BME280;593;53.184;8.216;2023-01-26T03:22:50;101930.66;;;3.08;100.00
1207;BME280;593;53.184;8.216;2023-01-26T03:25:35;101919.47;;;3.04;100.00
1207;BME280;593;53.184;8.216;2023-01-26T03:28:19;101927.97;;;3.08;100.00
1207;BME280;593;53.184;8.216;2023-01-26T03:30:50;101917.22;;;3.08;100.00
1207;BME280;593;53.184;8.216;2023-01-26T03:33:16;101934.13;;;3.08;100.00
1207;BME280;593;53.184;8.216;2023-01-26T03:35:42;101923.38;;;3.08;100.00
1207;BME280;593;53.184;8.216;2023-01-26T03:38:08;101927.53;;;3.11;100.00
1207;BME280;593;53.184;8.216;2023-01-26T03:40:33;101926.50;;;3.12;100.00
1207;BME280;593;53.184;8.216;2023-01-26T03:43:17;101929.19;;;3.12;100.00
1207;BME280;593;53.184;8.216;2023-01-26T03:46:02;101923.81;;;3.12;100.00
1207;BME280;593;53.184;8.216;2023-01-26T03:48:46;101915.75;;;3.12;100.00
1207;BME280;593;53.184;8.216;2023-01-26T03:51:30;101920.91;;;3.13;100.00
1207;BME280;593;53.184;8.216;2023-01-26T03:54:14;101916.78;;;3.11;100.00
1207;BME280;593;53.184;8.216;2023-01-26T03:56:58;101909.97;;;3.15;100.00
1207;BME280;593;53.184;8.216;2023-01-26T03:59:24;101909.38;;;3.13;100.00
1207;BME280;593;53.184;8.216;2023-01-26T04:02:03;101898.78;;;3.11;100.00
1207;BME280;593;53.184;8.216;2023-01-26T04:04:48;101895.28;;;3.11;100.00
1207;BME280;593;53.184;8.216;2023-01-26T04:07:32;101904.78;;;3.13;100.00
1207;BME280;593;53.184;8.216;2023-01-26T04:10:16;101902.53;;;3.17;100.00
1207;BME280;593;53.184;8.216;2023-01-26T04:12:41;101900.06;;;3.15;100.00
1207;BME280;593;53.184;8.216;2023-01-26T04:15:07;101901.91;;;3.15;100.00
1207;BME280;593;53.184;8.216;2023-01-26T04:17:51;101899.03;;;3.16;100.00
1207;BME280;593;53.184;8.216;2023-01-26T04:20:35;101905.22;;;3.17;100.00
1207;BME280;593;53.184;8.216;2023-01-26T04:23:19;101899.84;;;3.17;100.00
1207;BME280;593;53.184;8.216;2023-01-26T04:25:46;101904.00;;;3.19;100.00
1207;BME280;593;53.184;8.216;2023-01-26T04:28:11;101896.75;;;3.20;100.00
1207;BME280;593;53.184;8.216;2023-01-26T04:30:36;101893.25;;;3.19;100.00
1207;BME280;593;53.184;8.216;2023-01-26T04:33:03;101897.59;;;3.20;100.00
1207;BME280;593;53.184;8.216;2023-01-26T04:35:28;101894.69;;;3.22;100.00
1207;BME280;593;53.184;8.216;2023-01-26T04:37:53;101884.97;;;3.21;100.00
1207;BME280;593;53.184;8.216;2023-01-26T04:40:19;101884.97;;;3.21;100.00
1207;BME280;593;53.184;8.216;2023-01-26T04:42:44;101886.84;;;3.20;100.00
1207;BME280;593;53.184;8.216;2023-01-26T04:45:10;101888.31;;;3.23;100.00
1207;BME280;593;53.184;8.216;2023-01-26T04:47:35;101886.63;;;3.22;100.00
1207;BME280;593;53.184;8.216;2023-01-26T04:50:01;101892.84;;;3.22;100.00
1207;BME280;593;53.184;8.216;2023-01-26T04:52:26;101889.53;;;3.27;100.00
1207;BME280;593;53.184;8.216;2023-01-26T04:54:51;101877.94;;;3.20;100.00
1207;BME280;593;53.184;8.216;2023-01-26T04:57:17;101880.63;;;3.20;100.00
1207;BME280;593;53.184;8.216;2023-01-26T04:59:45;101880.84;;;3.25;100.00
1207;BME280;593;53.184;8.216;2023-01-26T05:02:10;101882.72;;;3.24;100.00
1207;BME280;593;53.184;8.216;2023-01-26T05:04:36;101872.56;;;3.20;100.00
1207;BME280;593;53.184;8.216;2023-01-26T05:07:01;101879.22;;;3.31;100.00
1207;BME280;593;53.184;8.216;2023-01-26T05:09:26;101876.53;;;3.31;100.00
1207;BME280;593;53.184;8.216;2023-01-26T05:11:52;101874.47;;;3.33;100.00
1207;BME280;593;53.184;8.216;2023-01-26T05:14:17;101872.16;;;3.30;100.00
1207;BME280;593;53.184;8.216;2023-01-26T05:16:43;101868.03;;;3.27;100.00
1207;BME280;593;53.184;8.216;2023-01-26T05:19:08;101874.63;;;3.31;100.00
1207;BME280;593;53.184;8.216;2023-01-26T05:21:34;101867.19;;;3.27;100.00
1207;BME280;593;53.184;8.216;2023-01-26T05:24:00;101874.03;;;3.29;100.00
1207;BME280;593;53.184;8.216;2023-01-26T05:26:25;101865.34;;;3.27;100.00
1207;BME280;593;53.184;8.216;2023-01-26T05:28:50;101868.66;;;3.29;100.00
1207;BME280;593;53.184;8.216;2023-01-26T05:31:15;101865.97;;;3.29;100.00
1207;BME280;593;53.184;8.216;2023-01-26T05:33:41;101872.16;;;3.30;100.00
1207;BME280;593;53.184;8.216;2023-01-26T05:36:06;101874.03;;;3.29;100.00
1207;BME280;593;53.184;8.216;2023-01-26T05:38:33;101868.88;;;3.28;100.00
1207;BME280;593;53.184;8.216;2023-01-26T05:40:59;101867.81;;;3.29;100.00
1207;BME280;593;53.184;8.216;2023-01-26T05:43:24;101880.03;;;3.31;100.00
1207;BME280;593;53.184;8.216;2023-01-26T05:45:50;101877.75;;;3.28;100.00
1207;BME280;593;53.184;8.216;2023-01-26T05:48:15;101884.59;;;3.31;100.00
1207;BME280;593;53.184;8.216;2023-01-26T05:50:41;101881.25;;;3.29;100.00
1207;BME280;593;53.184;8.216;2023-01-26T05:53:06;101887.06;;;3.32;100.00
1207;BME280;593;53.184;8.216;2023-01-26T05:55:31;101880.03;;;3.31;100.00
1207;BME280;593;53.184;8.216;2023-01-26T05:57:57;101885.41;;;3.31;100.00
1207;BME280;593;53.184;8.216;2023-01-26T06:00:26;101875.06;;;3.28;100.00
1207;BME280;593;53.184;8.216;2023-01-26T06:02:53;101875.06;;;3.28;100.00
1207;BME280;593;53.184;8.216;2023-01-26T06:05:19;101879.63;;;3.34;100.00
1207;BME280;593;53.184;8.216;2023-01-26T06:07:45;101884.38;;;3.32;100.00
1207;BME280;593;53.184;8.216;2023-01-26T06:10:10;101877.97;;;3.33;100.00
1207;BME280;593;53.184;8.216;2023-01-26T06:12:37;101886.84;;;3.34;100.00
1207;BME280;593;53.184;8.216;2023-01-26T06:15:05;101893.69;;;3.36;100.00
1207;BME280;593;53.184;8.216;2023-01-26T06:17:30;101895.34;;;3.37;100.00
1207;BME280;593;53.184;8.216;2023-01-26T06:19:56;101885.81;;;3.35;100.00
1207;BME280;593;53.184;8.216;2023-01-26T06:22:21;101888.94;;;3.38;100.00
1207;BME280;593;53.184;8.216;2023-01-26T06:24:47;101883.13;;;3.35;100.00
1207;BME280;593;53.184;8.216;2023-01-26T06:27:14;101889.34;;;3.42;100.00
1207;BME280;593;53.184;8.216;2023-01-26T06:29:40;101887.06;;;3.39;100.00
1207;BME280;593;53.184;8.216;2023-01-26T06:32:09;101903.41;;;3.44;100.00
1207;BME280;593;53.184;8.216;2023-01-26T06:34:35;101894.94;;;3.40;100.00
1207;BME280;593;53.184;8.216;2023-01-26T06:37:00;101899.91;;;3.43;100.00
1207;BME280;593;53.184;8.216;2023-01-26T06:39:25;101909.63;;;3.44;100.00
1207;BME280;593;53.184;8.216;2023-01-26T06:41:51;101902.59;;;3.43;100.00
1207;BME280;593;53.184;8.216;2023-01-26T06:44:16;101903.41;;;3.44;100.00
1207;BME280;593;53.184;8.216;2023-01-26T06:46:41;101896.56;;;3.41;100.00
1207;BME280;593;53.184;8.216;2023-01-26T06:49:08;101913.97;;;3.45;100.00
1207;BME280;593;53.184;8.216;2023-01-26T06:51:46;101917.69;;;3.44;100.00
1207;BME280;593;53.184;8.216;2023-01-26T06:54:13;101909.22;;;3.41;100.00
1207;BME280;593;53.184;8.216;2023-01-26T06:56:39;101911.47;;;3.44;100.00
1207;BME280;593;53.184;8.216;2023-01-26T06:59:05;101915.63;;;3.46;100.00
1207;BME280;593;53.184;8.216;2023-01-26T07:01:37;101897.59;;;3.34;100.00
1207;BME280;593;53.184;8.216;2023-01-26T07:04:03;101917.28;;;3.47;100.00
1207;BME280;593;53.184;8.216;2023-01-26T07:06:30;101911.91;;;3.47;100.00
1207;BME280;593;53.184;8.216;2023-01-26T07:09:00;101905.06;;;3.45;100.00
1207;BME280;593;53.184;8.216;2023-01-26T07:11:27;101922.66;;;3.47;100.00
1207;BME280;593;53.184;8.216;2023-01-26T07:13:55;101912.75;;;3.48;100.00
1207;BME280;593;53.184;8.216;2023-01-26T07:16:21;101906.72;;;3.46;100.00
1207;BME280;593;53.184;8.216;2023-01-26T07:18:46;101905.06;;;3.45;100.00
1207;BME280;593;53.184;8.216;2023-01-26T07:21:14;101909.63;;;3.44;100.00
1207;BME280;593;53.184;8.216;2023-01-26T07:23:42;101914.59;;;3.47;100.00
1207;BME280;593;53.184;8.216;2023-01-26T07:26:08;101919.97;;;3.47;100.00
1207;BME280;593;53.184;8.216;2023-01-26T07:28:33;101924.53;;;3.47;100.00
1207;BME280;593;53.184;8.216;2023-01-26T07:31:00;101930.72;;;3.47;100.00
1207;BME280;593;53.184;8.216;2023-01-26T07:33:29;101924.13;;;3.50;100.00
1207;BME280;593;53.184;8.216;2023-01-26T07:35:55;101931.34;;;3.49;100.00
1207;BME280;593;53.184;8.216;2023-01-26T07:38:22;101938.41;;;3.50;100.00
1207;BME280;593;53.184;8.216;2023-01-26T07:40:48;101931.34;;;3.49;100.00
1207;BME280;593;53.184;8.216;2023-01-26T07:43:14;101929.28;;;3.51;100.00
1207;BME280;593;53.184;8.216;2023-01-26T07:45:47;101921.44;;;3.50;100.00
1207;BME280;593;53.184;8.216;2023-01-26T07:48:15;101927.81;;;3.49;100.00
1207;BME280;593;53.184;8.216;2023-01-26T07:50:41;101929.91;;;3.53;100.00
1207;BME280;593;53.184;8.216;2023-01-26T07:53:07;101928.88;;;3.54;100.00
1207;BME280;593;53.184;8.216;2023-01-26T07:55:34;101926.19;;;3.54;100.00
1207;BME280;593;53.184;8.216;2023-01-26T07:57:59;101925.16;;;3.55;100.00
1207;BME280;593;53.184;8.216;2023-01-26T08:00:25;101926.81;;;3.56;100.00
1207;BME280;593;53.184;8.216;2023-01-26T08:02:50;101927.03;;;3.55;100.00
1207;BME280;593;53.184;8.216;2023-01-26T08:05:16;101924.50;;;3.53;100.00
1207;BME280;593;53.184;8.216;2023-01-26T08:07:41;101924.31;;;3.55;100.00
1207;BME280;593;53.184;8.216;2023-01-26T08:10:07;101933.41;;;3.54;100.00
1207;BME280;593;53.184;8.216;2023-01-26T08:12:34;101932.41;;;3.55;100.00
1207;BME280;593;53.184;8.216;2023-01-26T08:14:59;101936.94;;;3.54;100.00
1207;BME280;593;53.184;8.216;2023-01-26T08:17:27;101949.16;;;3.57;100.00
1207;BME280;593;53.184;8.216;2023-01-26T08:19:53;101953.06;;;3.54;100.00
1207;BME280;593;53.184;8.216;2023-01-26T08:22:18;101948.13;;;3.58;100.00
1207;BME280;593;53.184;8.216;2023-01-26T08:24:44;101946.47;;;3.57;100.00
1207;BME280;593;53.184;8.216;2023-01-26T08:27:09;101942.53;;;3.59;100.00
1207;BME280;593;53.184;8.216;2023-01-26T08:29:34;101938.19;;;3.58;100.00
1207;BME280;593;53.184;8.216;2023-01-26T08:32:00;101954.31;;;3.58;100.00
1207;BME280;593;53.184;8.216;2023-01-26T08:34:25;101956.19;;;3.58;100.00
1207;BME280;593;53.184;8.216;2023-01-26T08:36:51;101950.16;;;3.56;100.00
1207;BME280;593;53.184;8.216;2023-01-26T08:39:16;101952.47;;;3.59;100.00
1207;BME280;593;53.184;8.216;2023-01-26T08:41:41;101947.91;;;3.59;100.00
1207;BME280;593;53.184;8.216;2023-01-26T08:44:08;101956.81;;;3.60;100.00
1207;BME280;593;53.184;8.216;2023-01-26T08:46:34;101960.34;;;3.60;100.00
1207;BME280;593;53.184;8.216;2023-01-26T08:48:59;101957.00;;;3.58;100.00
1207;BME280;593;53.184;8.216;2023-01-26T08:51:24;101944.00;;;3.55;100.00
1207;BME280;593;53.184;8.216;2023-01-26T08:53:49;101945.84;;;3.61;100.00
1207;BME280;593;53.184;8.216;2023-01-26T08:56:15;101957.22;;;3.63;100.00
1207;BME280;593;53.184;8.216;2023-01-26T08:58:40;101965.09;;;3.65;100.00
1207;BME280;593;53.184;8.216;2023-01-26T09:01:12;101956.59;;;3.61;100.00
1207;BME280;593;53.184;8.216;2023-01-26T09:03:38;101962.00;;;3.68;100.00
1207;BME280;593;53.184;8.216;2023-01-26T09:06:04;101963.03;;;3.67;100.00
1207;BME280;593;53.184;8.216;2023-01-26T09:08:30;101969.47;;;3.72;100.00
1207;BME280;593;53.184;8.216;2023-01-26T09:10:56;101963.25;;;3.72;100.00
1207;BME280;593;53.184;8.216;2023-01-26T09:13:22;101969.25;;;3.74;100.00
1207;BME280;593;53.184;8.216;2023-01-26T09:15:48;101973.59;;;3.75;100.00
1207;BME280;593;53.184;8.216;2023-01-26T09:18:14;101973.38;;;3.76;100.00
1207;BME280;593;53.184;8.216;2023-01-26T09:20:40;101977.75;;;3.77;100.00
1207;BME280;593;53.184;8.216;2023-01-26T09:23:06;101986.44;;;3.79;100.00
1207;BME280;593;53.184;8.216;2023-01-26T09:25:34;101971.31;;;3.78;100.00
1207;BME280;593;53.184;8.216;2023-01-26T09:28:01;101962.22;;;3.79;100.00
1207;BME280;593;53.184;8.216;2023-01-26T09:30:26;101969.47;;;3.85;100.00
1207;BME280;593;53.184;8.216;2023-01-26T09:32:51;101966.34;;;3.88;100.00
1207;BME280;593;53.184;8.216;2023-01-26T09:35:21;101966.16;;;3.90;100.00
1207;BME280;593;53.184;8.216;2023-01-26T09:37:47;101970.91;;;3.95;100.00
1207;BME280;593;53.184;8.216;2023-01-26T09:43:05;101962.22;;;3.99;100.00
1207;BME280;593;53.184;8.216;2023-01-26T09:45:47;101960.97;;;4.02;100.00
1207;BME280;593;53.184;8.216;2023-01-26T09:50:57;101984.38;;;4.08;100.00
1207;BME280;593;53.184;8.216;2023-01-26T09:53:35;101958.31;;;4.08;100.00
1207;BME280;593;53.184;8.216;2023-01-26T09:56:04;101969.06;;;4.15;100.00
1207;BME280;593;53.184;8.216;2023-01-26T09:58:37;101968.66;;;4.18;100.00
1207;BME280;593;53.184;8.216;2023-01-26T10:01:04;101977.34;;;4.20;100.00
1207;BME280;593;53.184;8.216;2023-01-26T10:03:48;101977.75;;;4.23;100.00
1207;BME280;593;53.184;8.216;2023-01-26T10:06:23;101975.47;;;4.27;100.00
1207;BME280;593;53.184;8.216;2023-01-26T10:08:54;101978.59;;;4.30;100.00
1207;BME280;593;53.184;8.216;2023-01-26T10:11:32;101973.81;;;4.32;100.00
1207;BME280;593;53.184;8.216;2023-01-26T10:16:56;101962.63;;;4.35;100.00
1207;BME280;593;53.184;8.216;2023-01-26T10:19:36;101962.59;;;4.42;100.00
1207;BME280;593;53.184;8.216;2023-01-26T10:22:11;101969.44;;;4.44;100.00
1207;BME280;593;53.184;8.216;2023-01-26T10:24:38;101960.75;;;4.42;100.00
1207;BME280;593;53.184;8.216;2023-01-26T10:27:08;101974.41;;;4.47;100.00
1207;BME280;593;53.184;8.216;2023-01-26T10:29:34;101970.66;;;4.48;100.00
1207;BME280;593;53.184;8.216;2023-01-26T10:31:59;101965.28;;;4.55;100.00
1207;BME280;593;53.184;8.216;2023-01-26T10:34:26;101976.66;;;4.57;100.00
1207;BME280;593;53.184;8.216;2023-01-26T10:36:59;101973.97;;;4.57;100.00
1207;BME280;593;53.184;8.216;2023-01-26T10:39:26;101969.81;;;4.61;100.00
1207;BME280;593;53.184;8.216;2023-01-26T10:41:59;101967.13;;;4.61;100.00
1207;BME280;593;53.184;8.216;2023-01-26T10:44:33;101966.69;;;4.64;100.00
1207;BME280;593;53.184;8.216;2023-01-26T10:47:25;101975.19;;;4.68;100.00
1207;BME280;593;53.184;8.216;2023-01-26T10:49:50;101974.13;;;4.69;100.00
1207;BME280;593;53.184;8.216;2023-01-26T10:52:21;101964.81;;;4.71;100.00
1207;BME280;593;53.184;8.216;2023-01-26T10:54:48;101962.94;;;4.72;100.00
1207;BME280;593;53.184;8.216;2023-01-26T11:00:03;101957.56;;;4.78;100.00
1207;BME280;593;53.184;8.216;2023-01-26T11:02:34;101947.81;;;4.77;100.00
1207;BME280;593;53.184;8.216;2023-01-26T11:05:29;101960.22;;;4.85;100.00
1207;BME280;593;53.184;8.216;2023-01-26T11:07:56;101955.25;;;4.88;100.00
1207;BME280;593;53.184;8.216;2023-01-26T11:10:38;101962.69;;;4.93;100.00
1207;BME280;593;53.184;8.216;2023-01-26T11:13:19;101955.38;;;5.00;100.00
1207;BME280;593;53.184;8.216;2023-01-26T11:15:51;101955.56;;;5.05;100.00
1207;BME280;593;53.184;8.216;2023-01-26T11:21:17;101942.00;;;5.25;100.00
1207;BME280;593;53.184;8.216;2023-01-26T11:37:43;101937.31;;;5.76;100.00
1207;BME280;593;53.184;8.216;2023-01-26T11:42:38;101937.63;;;5.93;100.00
1207;BME280;593;53.184;8.216;2023-01-26T11:45:23;101929.25;;;6.01;100.00
1207;BME280;593;53.184;8.216;2023-01-26T11:48:13;101934.16;;;6.10;100.00
1207;BME280;593;53.184;8.216;2023-01-26T11:50:54;101934.91;;;6.17;100.00
1207;BME280;593;53.184;8.216;2023-01-26T11:53:25;101932.38;;;6.22;100.00
1207;BME280;593;53.184;8.216;2023-01-26T11:58:36;101929.09;;;6.38;100.00
1207;BME280;593;53.184;8.216;2023-01-26T12:01:12;101919.50;;;6.42;100.00
1207;BME280;593;53.184;8.216;2023-01-26T12:03:49;101922.72;;;6.51;100.00
1207;BME280;593;53.184;8.216;2023-01-26T12:06:18;101916.84;;;6.54;100.00
1207;BME280;593;53.184;8.216;2023-01-26T12:08:49;101910.81;;;6.59;100.00
1207;BME280;593;53.184;8.216;2023-01-26T12:13:58;101911.25;;;6.74;100.00
1207;BME280;593;53.184;8.216;2023-01-26T12:16:32;101913.25;;;6.78;100.00
1207;BME280;593;53.184;8.216;2023-01-26T12:19:11;101910.56;;;6.78;100.00
1207;BME280;593;53.184;8.216;2023-01-26T12:21:44;101905.31;;;6.83;100.00
1207;BME280;593;53.184;8.216;2023-01-26T12:24:14;101905.44;;;6.88;100.00
1207;BME280;593;53.184;8.216;2023-01-26T12:26:44;101901.47;;;6.91;100.00
1207;BME280;593;53.184;8.216;2023-01-26T12:29:19;101899.94;;;6.95;100.00
1207;BME280;593;53.184;8.216;2023-01-26T12:31:52;101890.31;;;6.99;100.00
1207;BME280;593;53.184;8.216;2023-01-26T12:34:24;101891.50;;;7.03;100.00
1207;BME280;593;53.184;8.216;2023-01-26T12:45:16;101868.16;;;7.08;100.00
1207;BME280;593;53.184;8.216;2023-01-26T12:50:39;101865.34;;;7.15;100.00
1207;BME280;593;53.184;8.216;2023-01-26T12:53:18;101864.06;;;7.18;100.00
1207;BME280;593;53.184;8.216;2023-01-26T12:55:53;101865.00;;;7.23;100.00
1207;BME280;593;53.184;8.216;2023-01-26T12:58:23;101865.34;;;7.27;100.00
1207;BME280;593;53.184;8.216;2023-01-26T13:00:52;101866.19;;;7.27;100.00
1207;BME280;593;53.184;8.216;2023-01-26T13:03:22;101868.19;;;7.32;100.00
1207;BME280;593;53.184;8.216;2023-01-26T13:11:07;101871.88;;;7.37;100.00
1207;BME280;593;53.184;8.216;2023-01-26T13:18:55;101864.56;;;7.38;100.00
1207;BME280;593;53.184;8.216;2023-01-26T13:26:54;101866.13;;;7.45;100.00
1207;BME280;593;53.184;8.216;2023-01-26T13:34:44;101867.09;;;7.51;100.00
1207;BME280;593;53.184;8.216;2023-01-26T13:37:19;101859.56;;;7.53;100.00
1207;BME280;593;53.184;8.216;2023-01-26T13:39:51;101863.09;;;7.53;100.00
1207;BME280;593;53.184;8.216;2023-01-26T13:42:22;101857.09;;;7.51;100.00
1207;BME280;593;53.184;8.216;2023-01-26T13:44:53;101856.00;;;7.52;100.00
1207;BME280;593;53.184;8.216;2023-01-26T13:47:31;101864.97;;;7.53;100.00
1207;BME280;593;53.184;8.216;2023-01-26T13:49:59;101862.63;;;7.56;100.00
1207;BME280;593;53.184;8.216;2023-01-26T13:52:26;101866.75;;;7.59;100.00
1207;BME280;593;53.184;8.216;2023-01-26T13:54:54;101882.75;;;7.60;100.00
1207;BME280;593;53.184;8.216;2023-01-26T13:57:30;101880.63;;;7.62;100.00
1207;BME280;593;53.184;8.216;2023-01-26T13:59:57;101874.88;;;7.59;100.00
1207;BME280;593;53.184;8.216;2023-01-26T14:02:32;101885.84;;;7.64;100.00
1207;BME280;593;53.184;8.216;2023-01-26T14:04:58;101879.22;;;7.60;100.00
1207;BME280;593;53.184;8.216;2023-01-26T14:07:27;101881.22;;;7.64;100.00
1207;BME280;593;53.184;8.216;2023-01-26T14:09:55;101880.19;;;7.65;100.00
1207;BME280;593;53.184;8.216;2023-01-26T14:12:41;101879.94;;;7.67;100.00
1207;BME280;593;53.184;8.216;2023-01-26T14:15:21;101879.72;;;7.68;100.00
1207;BME280;593;53.184;8.216;2023-01-26T14:17:49;101875.34;;;7.67;100.00
1207;BME280;593;53.184;8.216;2023-01-26T14:20:31;101875.34;;;7.67;100.00
1207;BME280;593;53.184;8.216;2023-01-26T14:25:26;101877.59;;;7.70;100.00
1207;BME280;593;53.184;8.216;2023-01-26T14:27:51;101879.25;;;7.71;100.00
1207;BME280;593;53.184;8.216;2023-01-26T14:32:46;101865.09;;;7.69;100.00
1207;BME280;593;53.184;8.216;2023-01-26T14:35:18;101873.34;;;7.74;100.00
1207;BME280;593;53.184;8.216;2023-01-26T14:37:44;101862.75;;;7.73;100.00
1207;BME280;593;53.184;8.216;2023-01-26T14:40:18;101870.44;;;7.76;100.00
1207;BME280;593;53.184;8.216;2023-01-26T14:42:46;101857.94;;;7.75;100.00
1207;BME280;593;53.184;8.216;2023-01-26T14:45:12;101866.31;;;7.73;100.00
1207;BME280;593;53.184;8.216;2023-01-26T14:47:39;101861.22;;;7.77;100.00
1207;BME280;593;53.184;8.216;2023-01-26T14:50:11;101866.44;;;7.79;100.00
1207;BME280;593;53.184;8.216;2023-01-26T14:52:42;101860.75;;;7.80;100.00
1207;BME280;593;53.184;8.216;2023-01-26T14:55:41;101867.47;;;7.78;100.00